createdAt,value
2022-11-25T00:04:10.768Z,5.90
2022-11-25T00:10:14.440Z,2.58
2022-11-25T00:16:21.207Z,2.47
2022-11-25T00:22:24.595Z,4.05
2022-11-25T00:28:29.646Z,5.82
2022-11-25T00:34:34.785Z,3.33
2022-11-25T00:40:38.285Z,2.47
2022-11-25T00:46:41.649Z,3.53
2022-11-25T00:52:46.406Z,3.70
2022-11-25T00:58:49.799Z,2.63
2022-11-25T01:04:53.119Z,1.50
2022-11-25T01:11:01.411Z,2.72
2022-11-25T01:17:04.732Z,2.10
2022-11-25T01:23:08.315Z,4.60
2022-11-25T01:29:16.052Z,4.38
2022-11-25T01:35:19.418Z,7.80
2022-11-25T01:41:23.693Z,2.95
2022-11-25T01:47:28.521Z,4.50
2022-11-25T01:53:31.977Z,2.40
2022-11-25T01:59:37.437Z,4.30
2022-11-25T02:05:44.442Z,6.05
2022-11-25T02:11:48.113Z,3.40
2022-11-25T02:17:51.745Z,5.05
2022-11-25T02:23:59.116Z,3.45
2022-11-25T02:30:06.513Z,4.03
2022-11-25T02:36:14.337Z,3.42
2022-11-25T02:42:19.780Z,3.10
2022-11-25T02:48:45.731Z,2.45
2022-11-25T02:54:49.483Z,4.25
2022-11-25T03:00:53.378Z,4.47
2022-11-25T03:06:58.045Z,2.22
2022-11-25T03:13:01.596Z,1.85
2022-11-25T03:19:04.962Z,2.83
2022-11-25T03:25:10.360Z,3.03
2022-11-25T03:31:13.928Z,2.47
2022-11-25T03:37:17.479Z,3.80
2022-11-25T03:43:22.669Z,5.00
2022-11-25T03:49:26.188Z,3.13
2022-11-25T03:55:29.621Z,1.42
2022-11-25T04:01:34.432Z,4.22
2022-11-25T04:07:38.003Z,3.70
2022-11-25T04:13:41.477Z,2.40
2022-11-25T04:19:46.229Z,2.10
2022-11-25T04:25:51.298Z,1.85
2022-11-25T04:31:54.722Z,3.40
2022-11-25T04:37:59.500Z,2.47
2022-11-25T04:44:03.089Z,5.95
2022-11-25T04:50:06.922Z,2.50
2022-11-25T04:56:13.508Z,2.03
2022-11-25T05:02:17.403Z,1.35
2022-11-25T05:08:20.988Z,2.95
2022-11-25T05:14:26.155Z,4.30
2022-11-25T05:20:29.567Z,2.00
2022-11-25T05:26:32.905Z,7.20
2022-11-25T05:32:37.626Z,3.85
2022-11-25T05:38:41.062Z,5.72
2022-11-25T05:44:44.619Z,5.63
2022-11-25T05:50:49.653Z,4.85
2022-11-25T06:03:33.544Z,5.18
2022-11-25T06:09:38.457Z,4.43
2022-11-25T06:15:42.889Z,5.60
2022-11-25T06:21:46.335Z,6.30
2022-11-25T06:28:11.721Z,5.72
2022-11-25T06:34:14.782Z,5.43
2022-11-25T06:40:18.335Z,5.32
2022-11-25T06:46:25.372Z,4.85
2022-11-25T06:52:29.027Z,4.78
2022-11-25T06:58:36.531Z,3.92
2022-11-25T07:04:41.708Z,7.57
2022-11-25T07:10:45.161Z,3.88
2022-11-25T07:16:48.519Z,4.10
2022-11-25T07:22:53.263Z,5.38
2022-11-25T07:28:57.333Z,5.30
2022-11-25T07:35:00.729Z,7.90
2022-11-25T07:41:07.412Z,4.93
2022-11-25T07:47:10.780Z,7.10
2022-11-25T07:53:14.455Z,7.72
2022-11-25T07:59:20.374Z,6.70
2022-11-25T08:05:23.772Z,6.55
2022-11-25T08:11:28.746Z,8.80
2022-11-25T08:17:33.537Z,12.95
2022-11-25T08:23:37.723Z,7.05
2022-11-25T08:29:41.128Z,7.47
2022-11-25T08:35:45.890Z,5.90
2022-11-25T08:41:49.226Z,5.57
2022-11-25T08:47:52.601Z,8.35
2022-11-25T08:53:57.459Z,6.65
2022-11-25T09:00:01.390Z,5.97
2022-11-25T09:06:05.218Z,6.35
2022-11-25T09:12:10.253Z,6.65
2022-11-25T09:18:14.790Z,5.45
2022-11-25T09:24:18.299Z,6.85
2022-11-25T09:30:23.251Z,5.20
2022-11-25T09:36:26.682Z,9.10
2022-11-25T09:42:50.825Z,8.48
2022-11-25T09:49:00.396Z,8.13
2022-11-25T09:55:06.441Z,10.00
2022-11-25T10:01:15.920Z,7.65
2022-11-25T10:07:23.002Z,9.15
2022-11-25T10:13:29.337Z,8.57
2022-11-25T10:19:38.874Z,6.47
2022-11-25T10:25:46.891Z,12.20
2022-11-25T10:31:52.636Z,6.82
2022-11-25T10:37:57.555Z,7.20
2022-11-25T10:44:02.308Z,7.03
2022-11-25T10:50:10.384Z,7.25
2022-11-25T10:56:18.835Z,5.80
2022-11-25T11:02:26.022Z,6.35
2022-11-25T11:08:30.269Z,8.23
2022-11-25T11:14:34.827Z,6.78
2022-11-25T11:20:39.835Z,6.85
2022-11-25T11:26:43.266Z,7.95
2022-11-25T11:32:48.292Z,10.27
2022-11-25T11:38:56.165Z,6.90
2022-11-25T11:45:04.698Z,9.35
2022-11-25T11:51:13.492Z,8.57
2022-11-25T11:57:22.578Z,5.53
2022-11-25T12:03:27.388Z,5.97
2022-11-25T12:09:31.607Z,3.63
2022-11-25T12:15:39.349Z,7.85
2022-11-25T12:21:47.649Z,2.92
2022-11-25T12:27:55.213Z,9.00
2022-11-25T12:34:04.008Z,9.85
2022-11-25T12:40:13.379Z,12.93
2022-11-25T12:46:34.626Z,7.35
2022-11-25T12:52:42.784Z,4.50
2022-11-25T12:58:57.097Z,6.97
2022-11-25T13:05:38.898Z,13.07
2022-11-25T13:11:52.296Z,6.38
2022-11-25T13:17:59.556Z,13.70
2022-11-25T13:24:03.184Z,9.85
2022-11-25T13:30:07.193Z,9.90
2022-11-25T13:36:19.406Z,7.60
2022-11-25T13:42:24.046Z,6.63
2022-11-25T13:48:28.679Z,10.75
2022-11-25T13:54:39.015Z,7.28
2022-11-25T14:00:50.572Z,9.02
2022-11-25T14:07:03.968Z,8.07
2022-11-25T14:13:17.656Z,7.82
2022-11-25T14:25:57.202Z,10.52
2022-11-25T14:32:04.698Z,10.63
2022-11-25T14:38:10.843Z,9.18
2022-11-25T14:44:16.226Z,10.13
2022-11-25T14:50:37.202Z,6.05
2022-11-25T14:56:41.881Z,11.15
2022-11-25T15:02:54.545Z,13.35
2022-11-25T15:09:00.170Z,9.90
2022-11-25T15:15:03.948Z,10.73
2022-11-25T15:21:08.150Z,29.85
2022-11-25T15:27:17.046Z,15.57
2022-11-25T15:33:20.603Z,11.77
2022-11-25T15:39:25.897Z,10.55
2022-11-25T15:45:34.095Z,7.97
2022-11-25T15:51:40.116Z,14.48
2022-11-25T15:57:43.568Z,24.67
2022-11-25T16:03:49.277Z,14.63
2022-11-25T16:09:52.784Z,17.88
2022-11-25T16:15:58.254Z,14.57
2022-11-25T16:22:04.412Z,11.20
2022-11-25T16:28:10.871Z,6.78
2022-11-25T16:34:15.194Z,16.58
2022-11-25T16:40:20.623Z,14.40
2022-11-25T16:46:24.203Z,13.32
2022-11-25T16:52:27.649Z,8.15
2022-11-25T16:58:32.421Z,14.02
2022-11-25T17:04:35.824Z,8.55
2022-11-25T17:10:39.321Z,45.60
2022-11-25T17:16:44.661Z,55.08
2022-11-25T17:22:48.084Z,38.90
2022-11-25T17:28:53.709Z,36.17
2022-11-25T17:34:58.473Z,29.63
2022-11-25T17:41:01.830Z,14.43
2022-11-25T17:47:11.459Z,11.40
2022-11-25T17:53:16.334Z,29.08
2022-11-25T17:59:23.034Z,37.42
2022-11-25T18:05:28.503Z,27.35
2022-11-25T18:11:33.780Z,31.40
2022-11-25T18:17:38.433Z,24.45
2022-11-25T18:23:42.450Z,12.90
2022-11-25T18:29:47.728Z,16.45
2022-11-25T18:35:51.135Z,9.18
2022-11-25T18:41:58.229Z,11.82
2022-11-25T18:48:04.412Z,7.30
2022-11-25T18:54:08.575Z,13.25
2022-11-25T19:00:32.609Z,7.18
2022-11-25T19:06:38.491Z,9.82
2022-11-25T19:12:44.183Z,10.00
2022-11-25T19:18:48.219Z,11.18
2022-11-25T19:24:52.955Z,8.20
2022-11-25T19:30:59.494Z,11.45
2022-11-25T19:37:03.184Z,21.25
2022-11-25T19:43:08.746Z,18.05
2022-11-25T19:49:17.022Z,13.40
2022-11-25T19:55:21.645Z,21.85
2022-11-25T20:01:30.181Z,19.67
2022-11-25T20:07:34.015Z,18.88
2022-11-25T20:13:37.479Z,15.48
2022-11-25T20:19:42.287Z,17.63
2022-11-25T20:25:47.426Z,16.80
2022-11-25T20:31:50.973Z,15.55
2022-11-25T20:37:58.010Z,15.68
2022-11-25T20:44:02.320Z,16.60
2022-11-25T20:50:05.947Z,18.48
2022-11-25T20:56:12.627Z,15.40
2022-11-25T21:02:16.138Z,16.10
2022-11-25T21:08:22.540Z,14.23
2022-11-25T21:14:27.565Z,19.95
2022-11-25T21:20:30.946Z,19.15
2022-11-25T21:26:34.335Z,19.25
2022-11-25T21:32:39.257Z,20.73
2022-11-25T21:38:44.033Z,20.50
2022-11-25T21:44:47.839Z,20.13
2022-11-25T21:50:53.231Z,18.38
2022-11-25T21:56:58.815Z,25.30
2022-11-25T22:03:02.320Z,18.95
2022-11-25T22:09:07.579Z,33.55
2022-11-25T22:15:15.264Z,22.77
2022-11-25T22:21:18.606Z,17.67
2022-11-25T22:27:24.431Z,13.35
2022-11-25T22:33:30.897Z,15.82
2022-11-25T22:39:34.691Z,12.13
2022-11-25T22:45:40.111Z,10.52
2022-11-25T22:51:44.083Z,11.93
2022-11-25T22:57:47.839Z,15.00
2022-11-25T23:03:53.415Z,16.02
2022-11-25T23:09:57.273Z,15.95
2022-11-25T23:16:01.834Z,18.85
2022-11-25T23:22:07.361Z,27.55
2022-11-25T23:28:10.747Z,21.45
2022-11-25T23:34:14.630Z,23.25
2022-11-25T23:40:21.328Z,15.73
2022-11-25T23:46:26.332Z,13.38
2022-11-25T23:52:29.831Z,17.08
2022-11-25T23:58:34.791Z,12.60
